sensor_id;sensor_type;location;lat;lon;timestamp;P1;durP1;ratioP1;P2;durP2;ratioP2
51584;SDS011;37669;50.312;18.670;2022-11-15T00:07:05;777.65;;;164.02;;
51584;SDS011;37669;50.312;18.670;2022-11-15T00:09:32;1192.43;;;158.23;;
51584;SDS011;37669;50.312;18.670;2022-11-15T00:11:59;1162.18;;;157.50;;
51584;SDS011;37669;50.312;18.670;2022-11-15T00:14:26;1092.90;;;150.52;;
51584;SDS011;37669;50.312;18.670;2022-11-15T00:16:53;965.20;;;155.00;;
51584;SDS011;37669;50.312;18.670;2022-11-15T00:19:20;768.35;;;143.48;;
51584;SDS011;37669;50.312;18.670;2022-11-15T00:21:47;1245.03;;;160.75;;
51584;SDS011;37669;50.312;18.670;2022-11-15T00:24:15;1253.93;;;154.07;;
51584;SDS011;37669;50.312;18.670;2022-11-15T00:26:42;730.78;;;135.30;;
51584;SDS011;37669;50.312;18.670;2022-11-15T00:29:09;875.60;;;136.32;;
51584;SDS011;37669;50.312;18.670;2022-11-15T00:31:36;960.20;;;140.45;;
51584;SDS011;37669;50.312;18.670;2022-11-15T00:34:03;704.42;;;136.68;;
51584;SDS011;37669;50.312;18.670;2022-11-15T00:36:32;757.97;;;131.70;;
51584;SDS011;37669;50.312;18.670;2022-11-15T00:38:59;884.22;;;150.13;;
51584;SDS011;37669;50.312;18.670;2022-11-15T00:41:28;1029.65;;;156.55;;
51584;SDS011;37669;50.312;18.670;2022-11-15T00:43:55;692.58;;;128.05;;
51584;SDS011;37669;50.312;18.670;2022-11-15T00:46:22;746.53;;;121.07;;
51584;SDS011;37669;50.312;18.670;2022-11-15T00:48:49;778.55;;;129.50;;
51584;SDS011;37669;50.312;18.670;2022-11-15T00:51:16;761.15;;;121.03;;
51584;SDS011;37669;50.312;18.670;2022-11-15T00:53:43;828.38;;;132.95;;
51584;SDS011;37669;50.312;18.670;2022-11-15T00:56:10;706.53;;;131.55;;
51584;SDS011;37669;50.312;18.670;2022-11-15T00:58:39;776.17;;;129.45;;
51584;SDS011;37669;50.312;18.670;2022-11-15T01:01:06;807.50;;;128.55;;
51584;SDS011;37669;50.312;18.670;2022-11-15T01:03:35;888.50;;;123.22;;
51584;SDS011;37669;50.312;18.670;2022-11-15T01:06:04;934.03;;;128.18;;
51584;SDS011;37669;50.312;18.670;2022-11-15T01:08:32;737.17;;;109.10;;
51584;SDS011;37669;50.312;18.670;2022-11-15T01:11:02;857.83;;;121.85;;
51584;SDS011;37669;50.312;18.670;2022-11-15T01:13:31;576.20;;;107.95;;
51584;SDS011;37669;50.312;18.670;2022-11-15T01:16:04;707.90;;;115.07;;
51584;SDS011;37669;50.312;18.670;2022-11-15T01:18:33;570.70;;;115.63;;
51584;SDS011;37669;50.312;18.670;2022-11-15T01:21:04;755.90;;;130.07;;
51584;SDS011;37669;50.312;18.670;2022-11-15T01:23:31;722.17;;;127.85;;
51584;SDS011;37669;50.312;18.670;2022-11-15T01:25:59;585.30;;;118.47;;
51584;SDS011;37669;50.312;18.670;2022-11-15T01:28:29;839.08;;;134.20;;
51584;SDS011;37669;50.312;18.670;2022-11-15T01:30:57;539.63;;;111.22;;
51584;SDS011;37669;50.312;18.670;2022-11-15T01:33:27;1005.25;;;153.13;;
51584;SDS011;37669;50.312;18.670;2022-11-15T01:35:54;735.80;;;137.52;;
51584;SDS011;37669;50.312;18.670;2022-11-15T01:38:21;881.25;;;136.57;;
51584;SDS011;37669;50.312;18.670;2022-11-15T01:40:49;712.53;;;133.10;;
51584;SDS011;37669;50.312;18.670;2022-11-15T01:43:20;560.55;;;123.45;;
51584;SDS011;37669;50.312;18.670;2022-11-15T01:45:49;655.15;;;123.95;;
51584;SDS011;37669;50.312;18.670;2022-11-15T01:48:21;547.45;;;115.25;;
51584;SDS011;37669;50.312;18.670;2022-11-15T01:50:51;630.15;;;136.70;;
51584;SDS011;37669;50.312;18.670;2022-11-15T01:53:19;753.35;;;141.73;;
51584;SDS011;37669;50.312;18.670;2022-11-15T01:55:49;498.08;;;118.90;;
51584;SDS011;37669;50.312;18.670;2022-11-15T01:58:17;644.65;;;138.68;;
51584;SDS011;37669;50.312;18.670;2022-11-15T02:00:44;588.05;;;128.75;;
51584;SDS011;37669;50.312;18.670;2022-11-15T02:03:12;446.92;;;112.97;;
51584;SDS011;37669;50.312;18.670;2022-11-15T06:28:46;322.00;;;132.93;;
51584;SDS011;37669;50.312;18.670;2022-11-15T06:31:13;337.65;;;140.05;;
51584;SDS011;37669;50.312;18.670;2022-11-15T06:33:40;315.48;;;142.68;;
51584;SDS011;37669;50.312;18.670;2022-11-15T06:36:08;391.33;;;156.25;;
51584;SDS011;37669;50.312;18.670;2022-11-15T06:38:38;344.77;;;152.40;;
51584;SDS011;37669;50.312;18.670;2022-11-15T06:41:06;353.92;;;154.27;;
51584;SDS011;37669;50.312;18.670;2022-11-15T06:43:36;324.83;;;147.48;;
51584;SDS011;37669;50.312;18.670;2022-11-15T06:46:05;354.60;;;154.50;;
51584;SDS011;37669;50.312;18.670;2022-11-15T06:48:33;315.48;;;144.32;;
51584;SDS011;37669;50.312;18.670;2022-11-15T06:51:01;360.33;;;156.77;;
51584;SDS011;37669;50.312;18.670;2022-11-15T06:53:30;360.73;;;154.30;;
51584;SDS011;37669;50.312;18.670;2022-11-15T06:55:58;361.08;;;154.57;;
51584;SDS011;37669;50.312;18.670;2022-11-15T06:58:27;309.60;;;150.32;;
51584;SDS011;37669;50.312;18.670;2022-11-15T07:00:58;353.60;;;154.43;;
51584;SDS011;37669;50.312;18.670;2022-11-15T07:03:26;360.27;;;167.75;;
51584;SDS011;37669;50.312;18.670;2022-11-15T07:05:54;358.55;;;168.73;;
51584;SDS011;37669;50.312;18.670;2022-11-15T07:08:22;337.95;;;166.77;;
51584;SDS011;37669;50.312;18.670;2022-11-15T07:10:50;335.70;;;160.30;;
51584;SDS011;37669;50.312;18.670;2022-11-15T07:13:17;300.52;;;158.57;;
51584;SDS011;37669;50.312;18.670;2022-11-15T07:15:45;264.85;;;145.73;;
51584;SDS011;37669;50.312;18.670;2022-11-15T07:18:14;241.77;;;141.52;;
51584;SDS011;37669;50.312;18.670;2022-11-15T07:20:41;261.20;;;143.77;;
51584;SDS011;37669;50.312;18.670;2022-11-15T07:23:08;233.98;;;136.57;;
51584;SDS011;37669;50.312;18.670;2022-11-15T07:25:35;231.05;;;132.30;;
51584;SDS011;37669;50.312;18.670;2022-11-15T07:28:02;227.68;;;131.52;;
51584;SDS011;37669;50.312;18.670;2022-11-15T07:30:29;221.00;;;131.95;;
51584;SDS011;37669;50.312;18.670;2022-11-15T07:32:57;202.35;;;123.32;;
51584;SDS011;37669;50.312;18.670;2022-11-15T07:35:27;189.07;;;124.32;;
51584;SDS011;37669;50.312;18.670;2022-11-15T07:37:55;190.23;;;122.50;;
51584;SDS011;37669;50.312;18.670;2022-11-15T07:40:23;183.30;;;114.68;;
51584;SDS011;37669;50.312;18.670;2022-11-15T07:42:50;178.38;;;109.95;;
51584;SDS011;37669;50.312;18.670;2022-11-15T07:45:21;174.20;;;112.93;;
51584;SDS011;37669;50.312;18.670;2022-11-15T07:47:50;173.95;;;115.30;;
51584;SDS011;37669;50.312;18.670;2022-11-15T07:50:18;167.90;;;113.47;;
51584;SDS011;37669;50.312;18.670;2022-11-15T07:52:47;164.50;;;106.35;;
51584;SDS011;37669;50.312;18.670;2022-11-15T07:55:19;146.80;;;100.05;;
51584;SDS011;37669;50.312;18.670;2022-11-15T07:57:46;160.73;;;106.05;;
51584;SDS011;37669;50.312;18.670;2022-11-15T08:00:13;158.65;;;97.60;;
51584;SDS011;37669;50.312;18.670;2022-11-15T08:02:41;140.55;;;94.63;;
51584;SDS011;37669;50.312;18.670;2022-11-15T08:05:08;126.70;;;83.88;;
51584;SDS011;37669;50.312;18.670;2022-11-15T08:07:35;130.77;;;82.97;;
51584;SDS011;37669;50.312;18.670;2022-11-15T08:10:05;130.55;;;84.38;;
51584;SDS011;37669;50.312;18.670;2022-11-15T08:12:33;128.75;;;83.55;;
51584;SDS011;37669;50.312;18.670;2022-11-15T08:15:00;133.65;;;82.60;;
51584;SDS011;37669;50.312;18.670;2022-11-15T08:17:27;136.00;;;83.78;;
51584;SDS011;37669;50.312;18.670;2022-11-15T08:19:57;129.88;;;83.05;;
51584;SDS011;37669;50.312;18.670;2022-11-15T08:22:29;137.80;;;85.70;;
51584;SDS011;37669;50.312;18.670;2022-11-15T08:25:01;133.50;;;83.25;;
51584;SDS011;37669;50.312;18.670;2022-11-15T08:27:42;133.00;;;84.78;;
51584;SDS011;37669;50.312;18.670;2022-11-15T08:30:16;134.45;;;84.32;;
51584;SDS011;37669;50.312;18.670;2022-11-15T08:32:51;134.68;;;86.70;;
51584;SDS011;37669;50.312;18.670;2022-11-15T08:35:20;133.70;;;86.68;;
51584;SDS011;37669;50.312;18.670;2022-11-15T08:37:53;129.80;;;87.80;;
51584;SDS011;37669;50.312;18.670;2022-11-15T08:40:27;131.95;;;84.65;;
51584;SDS011;37669;50.312;18.670;2022-11-15T08:42:58;140.15;;;85.80;;
51584;SDS011;37669;50.312;18.670;2022-11-15T08:45:27;124.15;;;86.53;;
51584;SDS011;37669;50.312;18.670;2022-11-15T08:47:54;130.18;;;83.88;;
51584;SDS011;37669;50.312;18.670;2022-11-15T08:50:22;134.65;;;85.32;;
51584;SDS011;37669;50.312;18.670;2022-11-15T08:52:49;126.00;;;83.07;;
51584;SDS011;37669;50.312;18.670;2022-11-15T08:55:16;145.25;;;86.35;;
51584;SDS011;37669;50.312;18.670;2022-11-15T08:57:43;137.05;;;85.15;;
51584;SDS011;37669;50.312;18.670;2022-11-15T09:00:12;129.93;;;80.55;;
51584;SDS011;37669;50.312;18.670;2022-11-15T09:02:40;127.53;;;83.43;;
51584;SDS011;37669;50.312;18.670;2022-11-15T09:05:07;124.30;;;80.15;;
51584;SDS011;37669;50.312;18.670;2022-11-15T09:07:35;114.25;;;77.55;;
51584;SDS011;37669;50.312;18.670;2022-11-15T09:10:02;117.45;;;78.78;;
51584;SDS011;37669;50.312;18.670;2022-11-15T09:12:29;114.57;;;75.22;;
51584;SDS011;37669;50.312;18.670;2022-11-15T09:14:56;126.00;;;74.55;;
51584;SDS011;37669;50.312;18.670;2022-11-15T09:17:25;117.03;;;73.40;;
51584;SDS011;37669;50.312;18.670;2022-11-15T09:19:52;115.20;;;74.80;;
51584;SDS011;37669;50.312;18.670;2022-11-15T09:22:19;105.30;;;71.43;;
51584;SDS011;37669;50.312;18.670;2022-11-15T09:24:46;107.22;;;73.93;;
51584;SDS011;37669;50.312;18.670;2022-11-15T09:27:13;107.97;;;72.63;;
51584;SDS011;37669;50.312;18.670;2022-11-15T09:29:40;108.50;;;73.63;;
51584;SDS011;37669;50.312;18.670;2022-11-15T09:32:07;105.82;;;72.65;;
51584;SDS011;37669;50.312;18.670;2022-11-15T09:34:37;117.22;;;73.13;;
51584;SDS011;37669;50.312;18.670;2022-11-15T09:37:04;98.30;;;67.72;;
51584;SDS011;37669;50.312;18.670;2022-11-15T09:39:31;110.93;;;74.50;;
51584;SDS011;37669;50.312;18.670;2022-11-15T09:42:02;125.25;;;72.40;;
51584;SDS011;37669;50.312;18.670;2022-11-15T09:44:41;107.15;;;69.97;;
51584;SDS011;37669;50.312;18.670;2022-11-15T09:47:29;103.35;;;71.60;;
51584;SDS011;37669;50.312;18.670;2022-11-15T09:50:17;106.45;;;68.65;;
51584;SDS011;37669;50.312;18.670;2022-11-15T09:52:52;108.35;;;69.78;;
51584;SDS011;37669;50.312;18.670;2022-11-15T09:55:21;119.50;;;72.18;;
51584;SDS011;37669;50.312;18.670;2022-11-15T09:58:00;88.65;;;64.30;;
51584;SDS011;37669;50.312;18.670;2022-11-15T10:00:31;94.35;;;64.93;;
51584;SDS011;37669;50.312;18.670;2022-11-15T10:03:12;91.75;;;64.95;;
51584;SDS011;37669;50.312;18.670;2022-11-15T10:05:45;96.55;;;63.47;;
51584;SDS011;37669;50.312;18.670;2022-11-15T10:08:25;94.07;;;63.40;;
51584;SDS011;37669;50.312;18.670;2022-11-15T10:11:01;89.80;;;60.85;;
51584;SDS011;37669;50.312;18.670;2022-11-15T10:13:31;87.63;;;59.88;;
51584;SDS011;37669;50.312;18.670;2022-11-15T10:16:02;94.97;;;60.17;;
51584;SDS011;37669;50.312;18.670;2022-11-15T10:18:41;81.57;;;58.03;;
51584;SDS011;37669;50.312;18.670;2022-11-15T10:21:20;103.22;;;57.58;;
51584;SDS011;37669;50.312;18.670;2022-11-15T10:23:48;98.72;;;59.25;;
51584;SDS011;37669;50.312;18.670;2022-11-15T10:26:17;76.38;;;53.70;;
51584;SDS011;37669;50.312;18.670;2022-11-15T10:28:44;74.93;;;56.25;;
51584;SDS011;37669;50.312;18.670;2022-11-15T10:31:20;88.60;;;57.90;;
51584;SDS011;37669;50.312;18.670;2022-11-15T10:33:49;86.95;;;57.63;;
51584;SDS011;37669;50.312;18.670;2022-11-15T10:36:18;85.22;;;55.25;;
51584;SDS011;37669;50.312;18.670;2022-11-15T10:38:54;72.60;;;53.92;;
51584;SDS011;37669;50.312;18.670;2022-11-15T10:41:30;77.63;;;55.97;;
51584;SDS011;37669;50.312;18.670;2022-11-15T10:47:05;79.15;;;53.70;;
51584;SDS011;37669;50.312;18.670;2022-11-15T10:50:01;73.00;;;52.65;;
51584;SDS011;37669;50.312;18.670;2022-11-15T10:52:32;74.40;;;52.55;;
51584;SDS011;37669;50.312;18.670;2022-11-15T10:55:02;74.70;;;54.45;;
51584;SDS011;37669;50.312;18.670;2022-11-15T10:57:48;80.55;;;53.75;;
51584;SDS011;37669;50.312;18.670;2022-11-15T11:00:26;72.28;;;50.38;;
51584;SDS011;37669;50.312;18.670;2022-11-15T11:02:57;79.93;;;50.80;;
51584;SDS011;37669;50.312;18.670;2022-11-15T11:05:26;75.72;;;54.58;;
51584;SDS011;37669;50.312;18.670;2022-11-15T11:08:00;78.55;;;52.08;;
51584;SDS011;37669;50.312;18.670;2022-11-15T11:10:28;75.03;;;49.97;;
51584;SDS011;37669;50.312;18.670;2022-11-15T11:13:05;68.28;;;50.40;;
51584;SDS011;37669;50.312;18.670;2022-11-15T11:15:40;72.53;;;48.70;;
51584;SDS011;37669;50.312;18.670;2022-11-15T11:18:15;67.18;;;49.22;;
51584;SDS011;37669;50.312;18.670;2022-11-15T11:20:53;71.50;;;48.78;;
51584;SDS011;37669;50.312;18.670;2022-11-15T11:23:32;71.70;;;47.25;;
51584;SDS011;37669;50.312;18.670;2022-11-15T11:26:14;68.15;;;51.47;;
51584;SDS011;37669;50.312;18.670;2022-11-15T11:28:57;68.18;;;46.15;;
51584;SDS011;37669;50.312;18.670;2022-11-15T11:31:35;64.82;;;47.45;;
51584;SDS011;37669;50.312;18.670;2022-11-15T11:34:16;65.93;;;47.83;;
51584;SDS011;37669;50.312;18.670;2022-11-15T11:36:55;63.00;;;46.72;;
51584;SDS011;37669;50.312;18.670;2022-11-15T11:39:27;60.45;;;46.55;;
51584;SDS011;37669;50.312;18.670;2022-11-15T11:42:10;66.15;;;46.85;;
51584;SDS011;37669;50.312;18.670;2022-11-15T11:44:47;71.93;;;46.13;;
51584;SDS011;37669;50.312;18.670;2022-11-15T11:47:28;70.68;;;47.92;;
51584;SDS011;37669;50.312;18.670;2022-11-15T11:49:59;60.10;;;46.28;;
51584;SDS011;37669;50.312;18.670;2022-11-15T11:52:33;64.15;;;47.78;;
51584;SDS011;37669;50.312;18.670;2022-11-15T11:55:12;61.58;;;47.17;;
51584;SDS011;37669;50.312;18.670;2022-11-15T11:57:43;65.65;;;46.95;;
51584;SDS011;37669;50.312;18.670;2022-11-15T12:00:16;70.35;;;49.00;;
51584;SDS011;37669;50.312;18.670;2022-11-15T12:02:47;63.30;;;46.95;;
51584;SDS011;37669;50.312;18.670;2022-11-15T12:05:22;64.55;;;46.67;;
51584;SDS011;37669;50.312;18.670;2022-11-15T12:07:56;64.00;;;48.50;;
51584;SDS011;37669;50.312;18.670;2022-11-15T12:10:32;61.35;;;46.53;;
51584;SDS011;37669;50.312;18.670;2022-11-15T12:13:02;70.75;;;47.00;;
51584;SDS011;37669;50.312;18.670;2022-11-15T12:15:36;63.00;;;45.55;;
51584;SDS011;37669;50.312;18.670;2022-11-15T12:18:08;65.70;;;48.28;;
51584;SDS011;37669;50.312;18.670;2022-11-15T12:20:41;65.78;;;46.88;;
51584;SDS011;37669;50.312;18.670;2022-11-15T12:23:27;68.03;;;48.10;;
51584;SDS011;37669;50.312;18.670;2022-11-15T12:26:00;64.93;;;46.65;;
51584;SDS011;37669;50.312;18.670;2022-11-15T12:28:34;67.18;;;47.45;;
51584;SDS011;37669;50.312;18.670;2022-11-15T12:31:05;67.63;;;45.75;;
51584;SDS011;37669;50.312;18.670;2022-11-15T12:33:42;55.30;;;43.93;;
51584;SDS011;37669;50.312;18.670;2022-11-15T12:36:11;62.53;;;43.67;;
51584;SDS011;37669;50.312;18.670;2022-11-15T12:38:57;55.08;;;42.83;;
51584;SDS011;37669;50.312;18.670;2022-11-15T12:41:26;55.03;;;44.15;;
51584;SDS011;37669;50.312;18.670;2022-11-15T12:43:55;61.80;;;45.05;;
51584;SDS011;37669;50.312;18.670;2022-11-15T12:49:43;74.18;;;48.70;;
51584;SDS011;37669;50.312;18.670;2022-11-15T12:52:11;73.07;;;52.13;;
51584;SDS011;37669;50.312;18.670;2022-11-15T12:54:52;80.28;;;53.63;;
51584;SDS011;37669;50.312;18.670;2022-11-15T12:57:29;63.38;;;46.45;;
51584;SDS011;37669;50.312;18.670;2022-11-15T13:03:17;71.38;;;49.35;;
51584;SDS011;37669;50.312;18.670;2022-11-15T13:05:56;120.32;;;57.90;;
51584;SDS011;37669;50.312;18.670;2022-11-15T13:08:45;91.10;;;50.63;;
51584;SDS011;37669;50.312;18.670;2022-11-15T13:17:17;74.18;;;52.20;;
51584;SDS011;37669;50.312;18.670;2022-11-15T13:20:00;85.88;;;52.17;;
51584;SDS011;37669;50.312;18.670;2022-11-15T13:22:40;75.07;;;51.00;;
51584;SDS011;37669;50.312;18.670;2022-11-15T13:25:18;65.88;;;50.83;;
51584;SDS011;37669;50.312;18.670;2022-11-15T13:27:52;81.80;;;53.35;;
51584;SDS011;37669;50.312;18.670;2022-11-15T13:30:25;72.00;;;52.67;;
51584;SDS011;37669;50.312;18.670;2022-11-15T13:32:54;80.18;;;55.08;;
51584;SDS011;37669;50.312;18.670;2022-11-15T13:35:25;81.75;;;55.30;;
51584;SDS011;37669;50.312;18.670;2022-11-15T13:37:54;91.38;;;56.00;;
51584;SDS011;37669;50.312;18.670;2022-11-15T13:40:24;88.47;;;55.30;;
51584;SDS011;37669;50.312;18.670;2022-11-15T13:42:55;83.65;;;58.10;;
51584;SDS011;37669;50.312;18.670;2022-11-15T13:45:24;92.03;;;57.55;;
51584;SDS011;37669;50.312;18.670;2022-11-15T13:47:53;83.00;;;55.58;;
51584;SDS011;37669;50.312;18.670;2022-11-15T13:50:22;83.18;;;58.78;;
51584;SDS011;37669;50.312;18.670;2022-11-15T13:52:52;94.13;;;62.38;;
51584;SDS011;37669;50.312;18.670;2022-11-15T13:55:23;92.93;;;61.22;;
51584;SDS011;37669;50.312;18.670;2022-11-15T13:57:51;97.25;;;64.22;;
51584;SDS011;37669;50.312;18.670;2022-11-15T14:00:26;93.65;;;63.60;;
51584;SDS011;37669;50.312;18.670;2022-11-15T14:03:04;97.90;;;64.47;;
51584;SDS011;37669;50.312;18.670;2022-11-15T14:05:34;98.78;;;65.85;;
51584;SDS011;37669;50.312;18.670;2022-11-15T14:08:02;104.47;;;66.63;;
51584;SDS011;37669;50.312;18.670;2022-11-15T14:10:38;113.05;;;67.97;;
51584;SDS011;37669;50.312;18.670;2022-11-15T14:13:09;106.15;;;69.22;;
51584;SDS011;37669;50.312;18.670;2022-11-15T14:15:54;109.70;;;67.53;;
51584;SDS011;37669;50.312;18.670;2022-11-15T14:18:40;114.88;;;70.10;;
51584;SDS011;37669;50.312;18.670;2022-11-15T14:21:09;107.97;;;69.78;;
51584;SDS011;37669;50.312;18.670;2022-11-15T14:23:36;105.13;;;67.78;;
51584;SDS011;37669;50.312;18.670;2022-11-15T14:26:03;103.35;;;67.57;;
51584;SDS011;37669;50.312;18.670;2022-11-15T14:28:31;110.80;;;68.28;;
51584;SDS011;37669;50.312;18.670;2022-11-15T14:31:07;118.30;;;70.70;;
51584;SDS011;37669;50.312;18.670;2022-11-15T14:33:39;110.03;;;67.43;;
51584;SDS011;37669;50.312;18.670;2022-11-15T14:36:11;111.38;;;69.25;;
51584;SDS011;37669;50.312;18.670;2022-11-15T14:38:40;109.20;;;71.85;;
51584;SDS011;37669;50.312;18.670;2022-11-15T14:41:10;105.60;;;68.75;;
51584;SDS011;37669;50.312;18.670;2022-11-15T14:46:13;126.00;;;75.53;;
51584;SDS011;37669;50.312;18.670;2022-11-15T14:48:40;126.28;;;76.72;;
51584;SDS011;37669;50.312;18.670;2022-11-15T14:53:32;137.38;;;89.72;;
51584;SDS011;37669;50.312;18.670;2022-11-15T14:55:59;140.43;;;87.93;;
51584;SDS011;37669;50.312;18.670;2022-11-15T14:58:26;131.27;;;85.55;;
51584;SDS011;37669;50.312;18.670;2022-11-15T15:00:53;128.60;;;85.40;;
51584;SDS011;37669;50.312;18.670;2022-11-15T15:03:22;121.93;;;84.85;;
51584;SDS011;37669;50.312;18.670;2022-11-15T15:05:49;125.53;;;83.45;;
51584;SDS011;37669;50.312;18.670;2022-11-15T15:08:16;133.65;;;82.57;;
51584;SDS011;37669;50.312;18.670;2022-11-15T15:10:44;126.63;;;81.10;;
51584;SDS011;37669;50.312;18.670;2022-11-15T15:13:15;121.75;;;81.28;;
51584;SDS011;37669;50.312;18.670;2022-11-15T15:15:44;126.50;;;79.72;;
51584;SDS011;37669;50.312;18.670;2022-11-15T15:18:12;125.00;;;80.07;;
51584;SDS011;37669;50.312;18.670;2022-11-15T15:20:40;116.30;;;80.50;;
51584;SDS011;37669;50.312;18.670;2022-11-15T15:23:13;136.52;;;82.43;;
51584;SDS011;37669;50.312;18.670;2022-11-15T15:25:42;129.07;;;83.13;;
51584;SDS011;37669;50.312;18.670;2022-11-15T15:28:10;124.68;;;80.78;;
51584;SDS011;37669;50.312;18.670;2022-11-15T15:30:38;139.30;;;85.90;;
51584;SDS011;37669;50.312;18.670;2022-11-15T15:33:05;146.02;;;85.47;;
51584;SDS011;37669;50.312;18.670;2022-11-15T15:35:33;132.75;;;86.75;;
51584;SDS011;37669;50.312;18.670;2022-11-15T15:38:02;125.90;;;85.07;;
51584;SDS011;37669;50.312;18.670;2022-11-15T15:40:30;134.15;;;84.32;;
51584;SDS011;37669;50.312;18.670;2022-11-15T15:42:59;149.32;;;94.57;;
51584;SDS011;37669;50.312;18.670;2022-11-15T15:45:26;146.23;;;97.38;;
51584;SDS011;37669;50.312;18.670;2022-11-15T15:47:56;160.38;;;97.80;;
51584;SDS011;37669;50.312;18.670;2022-11-15T15:50:24;160.98;;;99.05;;
51584;SDS011;37669;50.312;18.670;2022-11-15T15:52:52;154.80;;;98.38;;
51584;SDS011;37669;50.312;18.670;2022-11-15T15:55:23;160.05;;;100.57;;
51584;SDS011;37669;50.312;18.670;2022-11-15T15:57:51;151.82;;;96.90;;
51584;SDS011;37669;50.312;18.670;2022-11-15T16:00:19;156.80;;;99.95;;
51584;SDS011;37669;50.312;18.670;2022-11-15T16:02:48;154.18;;;103.35;;
51584;SDS011;37669;50.312;18.670;2022-11-15T16:05:15;187.02;;;114.78;;
51584;SDS011;37669;50.312;18.670;2022-11-15T16:07:43;170.15;;;110.53;;
51584;SDS011;37669;50.312;18.670;2022-11-15T16:10:16;182.65;;;112.68;;
51584;SDS011;37669;50.312;18.670;2022-11-15T16:12:47;171.52;;;109.97;;
51584;SDS011;37669;50.312;18.670;2022-11-15T16:15:15;184.75;;;109.05;;
51584;SDS011;37669;50.312;18.670;2022-11-15T16:17:44;187.77;;;116.43;;
51584;SDS011;37669;50.312;18.670;2022-11-15T16:23:04;175.32;;;113.13;;
51584;SDS011;37669;50.312;18.670;2022-11-15T16:25:33;170.05;;;111.00;;
51584;SDS011;37669;50.312;18.670;2022-11-15T16:28:07;206.05;;;129.35;;
51584;SDS011;37669;50.312;18.670;2022-11-15T16:30:59;211.85;;;137.52;;
51584;SDS011;37669;50.312;18.670;2022-11-15T16:33:27;189.88;;;127.00;;
51584;SDS011;37669;50.312;18.670;2022-11-15T16:35:54;203.18;;;125.97;;
51584;SDS011;37669;50.312;18.670;2022-11-15T16:38:21;202.23;;;122.35;;
51584;SDS011;37669;50.312;18.670;2022-11-15T16:40:48;216.43;;;132.93;;
51584;SDS011;37669;50.312;18.670;2022-11-15T16:43:17;207.20;;;133.27;;
51584;SDS011;37669;50.312;18.670;2022-11-15T16:45:44;207.23;;;136.38;;
51584;SDS011;37669;50.312;18.670;2022-11-15T16:48:15;196.77;;;132.95;;
51584;SDS011;37669;50.312;18.670;2022-11-15T16:50:47;216.65;;;141.00;;
51584;SDS011;37669;50.312;18.670;2022-11-15T16:53:15;195.23;;;132.27;;
51584;SDS011;37669;50.312;18.670;2022-11-15T16:55:42;190.57;;;128.75;;
51584;SDS011;37669;50.312;18.670;2022-11-15T16:58:09;186.18;;;125.47;;
51584;SDS011;37669;50.312;18.670;2022-11-15T17:00:37;214.43;;;137.80;;
51584;SDS011;37669;50.312;18.670;2022-11-15T17:03:04;237.52;;;151.57;;
51584;SDS011;37669;50.312;18.670;2022-11-15T17:05:32;226.20;;;158.00;;
51584;SDS011;37669;50.312;18.670;2022-11-15T17:07:59;235.80;;;158.02;;
51584;SDS011;37669;50.312;18.670;2022-11-15T17:10:26;236.85;;;164.00;;
51584;SDS011;37669;50.312;18.670;2022-11-15T17:12:54;246.98;;;171.55;;
51584;SDS011;37669;50.312;18.670;2022-11-15T17:15:21;263.17;;;177.43;;
51584;SDS011;37669;50.312;18.670;2022-11-15T17:17:51;278.77;;;189.38;;
51584;SDS011;37669;50.312;18.670;2022-11-15T17:20:20;314.42;;;206.15;;
51584;SDS011;37669;50.312;18.670;2022-11-15T17:22:48;326.48;;;213.65;;
51584;SDS011;37669;50.312;18.670;2022-11-15T17:25:15;316.85;;;211.75;;
51584;SDS011;37669;50.312;18.670;2022-11-15T17:27:42;316.75;;;212.88;;
51584;SDS011;37669;50.312;18.670;2022-11-15T17:30:11;333.27;;;222.40;;
51584;SDS011;37669;50.312;18.670;2022-11-15T17:32:40;312.75;;;213.57;;
51584;SDS011;37669;50.312;18.670;2022-11-15T17:35:09;335.40;;;236.10;;
51584;SDS011;37669;50.312;18.670;2022-11-15T17:37:37;369.00;;;254.68;;
51584;SDS011;37669;50.312;18.670;2022-11-15T17:40:05;357.40;;;245.55;;
51584;SDS011;37669;50.312;18.670;2022-11-15T17:42:33;342.00;;;237.80;;
51584;SDS011;37669;50.312;18.670;2022-11-15T17:45:00;354.73;;;245.45;;
51584;SDS011;37669;50.312;18.670;2022-11-15T17:47:27;341.23;;;234.18;;
51584;SDS011;37669;50.312;18.670;2022-11-15T17:49:54;309.92;;;212.20;;
51584;SDS011;37669;50.312;18.670;2022-11-15T17:52:22;319.77;;;219.27;;
51584;SDS011;37669;50.312;18.670;2022-11-15T17:54:50;325.60;;;204.25;;
51584;SDS011;37669;50.312;18.670;2022-11-15T17:57:17;298.42;;;205.65;;
51584;SDS011;37669;50.312;18.670;2022-11-15T17:59:44;317.20;;;205.25;;
51584;SDS011;37669;50.312;18.670;2022-11-15T18:02:12;322.70;;;213.27;;
51584;SDS011;37669;50.312;18.670;2022-11-15T18:04:39;289.55;;;192.30;;
51584;SDS011;37669;50.312;18.670;2022-11-15T18:07:06;320.67;;;218.63;;
51584;SDS011;37669;50.312;18.670;2022-11-15T18:09:37;322.95;;;223.55;;
51584;SDS011;37669;50.312;18.670;2022-11-15T18:12:06;312.63;;;217.52;;
51584;SDS011;37669;50.312;18.670;2022-11-15T18:14:33;313.98;;;219.48;;
51584;SDS011;37669;50.312;18.670;2022-11-15T18:17:00;332.88;;;236.13;;
51584;SDS011;37669;50.312;18.670;2022-11-15T18:19:27;340.58;;;233.20;;
51584;SDS011;37669;50.312;18.670;2022-11-15T18:21:54;328.23;;;229.02;;
51584;SDS011;37669;50.312;18.670;2022-11-15T18:24:21;334.40;;;239.30;;
51584;SDS011;37669;50.312;18.670;2022-11-15T18:26:50;343.35;;;237.65;;
51584;SDS011;37669;50.312;18.670;2022-11-15T18:29:18;324.75;;;233.63;;
51584;SDS011;37669;50.312;18.670;2022-11-15T18:31:45;337.73;;;232.13;;
51584;SDS011;37669;50.312;18.670;2022-11-15T18:34:14;332.67;;;231.73;;
51584;SDS011;37669;50.312;18.670;2022-11-15T18:36:42;337.35;;;226.98;;
51584;SDS011;37669;50.312;18.670;2022-11-15T18:39:10;327.00;;;229.27;;
51584;SDS011;37669;50.312;18.670;2022-11-15T18:41:40;336.90;;;234.02;;
51584;SDS011;37669;50.312;18.670;2022-11-15T18:44:10;334.10;;;229.20;;
51584;SDS011;37669;50.312;18.670;2022-11-15T18:46:40;356.33;;;250.88;;
51584;SDS011;37669;50.312;18.670;2022-11-15T18:49:10;341.98;;;240.00;;
51584;SDS011;37669;50.312;18.670;2022-11-15T18:51:38;312.10;;;212.00;;
51584;SDS011;37669;50.312;18.670;2022-11-15T18:54:07;310.90;;;206.50;;
51584;SDS011;37669;50.312;18.670;2022-11-15T18:56:36;279.98;;;190.02;;
51584;SDS011;37669;50.312;18.670;2022-11-15T18:59:03;263.30;;;184.77;;
51584;SDS011;37669;50.312;18.670;2022-11-15T19:01:34;260.10;;;171.52;;
51584;SDS011;37669;50.312;18.670;2022-11-15T19:04:04;261.05;;;168.40;;